createdAt,value
2018-09-26T00:00:57.914Z,100.00
2018-09-26T00:03:28.684Z,100.00
2018-09-26T00:05:57.702Z,100.00
2018-09-26T00:08:27.193Z,100.00
2018-09-26T00:10:57.221Z,100.00
2018-09-26T00:13:27.548Z,100.00
2018-09-26T00:15:56.265Z,100.00
2018-09-26T00:18:24.654Z,100.00
2018-09-26T00:20:52.985Z,100.00
2018-09-26T00:23:22.129Z,100.00
2018-09-26T00:25:50.466Z,100.00
2018-09-26T00:28:18.820Z,100.00
2018-09-26T00:30:47.243Z,100.00
2018-09-26T00:33:16.583Z,100.00
2018-09-26T00:35:45.762Z,100.00
2018-09-26T00:38:14.109Z,100.00
2018-09-26T00:40:42.451Z,100.00
2018-09-26T00:43:11.657Z,100.00
2018-09-26T00:45:40.913Z,100.00
2018-09-26T00:48:09.256Z,100.00
2018-09-26T00:50:38.529Z,100.00
2018-09-26T00:53:07.750Z,100.00
2018-09-26T00:55:36.880Z,100.00
2018-09-26T00:58:05.982Z,100.00
2018-09-26T01:00:35.908Z,100.00
2018-09-26T01:03:05.405Z,100.00
2018-09-26T01:05:35.209Z,100.00
2018-09-26T01:08:04.566Z,100.00
2018-09-26T01:10:32.918Z,100.00
2018-09-26T01:13:02.325Z,100.00
2018-09-26T01:15:31.700Z,100.00
2018-09-26T01:18:01.177Z,100.00
2018-09-26T01:20:30.420Z,100.00
2018-09-26T01:22:59.702Z,100.00
2018-09-26T01:25:28.962Z,100.00
2018-09-26T01:27:58.248Z,100.00
2018-09-26T01:30:27.329Z,100.00
2018-09-26T01:32:57.146Z,100.00
2018-09-26T01:35:26.713Z,100.00
2018-09-26T01:37:56.553Z,100.00
2018-09-26T01:40:26.300Z,100.00
2018-09-26T01:42:56.282Z,100.00
2018-09-26T01:45:25.949Z,100.00
2018-09-26T01:47:54.329Z,100.00
2018-09-26T01:50:22.709Z,100.00
2018-09-26T01:52:52.125Z,100.00
2018-09-26T01:55:21.501Z,100.00
2018-09-26T01:57:49.829Z,100.00
2018-09-26T02:00:18.170Z,100.00
2018-09-26T02:02:47.499Z,100.00
2018-09-26T02:05:15.942Z,100.00
2018-09-26T02:07:44.272Z,100.00
2018-09-26T02:10:13.522Z,100.00
2018-09-26T02:12:42.736Z,100.00
2018-09-26T02:15:11.974Z,100.00
2018-09-26T02:17:40.400Z,100.00
2018-09-26T02:20:08.795Z,100.00
2018-09-26T02:22:38.057Z,100.00
2018-09-26T02:25:07.045Z,100.00
2018-09-26T02:27:36.398Z,100.00
2018-09-26T02:30:04.799Z,100.00
2018-09-26T02:32:33.143Z,100.00
2018-09-26T02:35:01.824Z,100.00
2018-09-26T02:37:30.327Z,100.00
2018-09-26T02:39:58.673Z,100.00
2018-09-26T02:42:27.725Z,100.00
2018-09-26T02:44:57.233Z,100.00
2018-09-26T02:47:27.577Z,100.00
2018-09-26T02:49:56.284Z,100.00
2018-09-26T02:52:26.389Z,100.00
2018-09-26T02:54:55.689Z,100.00
2018-09-26T02:57:25.011Z,100.00
2018-09-26T02:59:53.353Z,100.00
2018-09-26T03:02:21.807Z,100.00
2018-09-26T03:04:50.162Z,100.00
2018-09-26T03:07:19.401Z,100.00
2018-09-26T03:09:47.769Z,100.00
2018-09-26T03:12:16.107Z,100.00
2018-09-26T03:14:45.453Z,100.00
2018-09-26T03:17:13.794Z,100.00
2018-09-26T03:19:43.137Z,100.00
2018-09-26T03:22:11.473Z,100.00
2018-09-26T03:24:40.697Z,100.00
2018-09-26T03:27:09.091Z,100.00
2018-09-26T03:29:37.409Z,100.00
2018-09-26T03:32:06.430Z,100.00
2018-09-26T03:34:36.750Z,100.00
2018-09-26T03:37:06.950Z,100.00
2018-09-26T03:39:36.538Z,100.00
2018-09-26T03:42:04.934Z,100.00
2018-09-26T03:44:34.756Z,100.00
2018-09-26T03:47:03.140Z,100.00
2018-09-26T03:49:31.467Z,100.00
2018-09-26T03:52:00.847Z,100.00
2018-09-26T03:54:30.065Z,100.00
2018-09-26T03:56:59.448Z,100.00
2018-09-26T03:59:29.221Z,100.00
2018-09-26T04:01:58.483Z,100.00
2018-09-26T04:04:28.105Z,100.00
2018-09-26T04:06:58.414Z,100.00
2018-09-26T04:09:28.228Z,100.00
2018-09-26T04:11:57.437Z,100.00
2018-09-26T04:14:26.458Z,100.00
2018-09-26T04:16:56.413Z,100.00
2018-09-26T04:19:26.394Z,100.00
2018-09-26T04:21:56.385Z,100.00
2018-09-26T04:24:26.459Z,100.00
2018-09-26T04:26:56.039Z,100.00
2018-09-26T04:29:25.063Z,100.00
2018-09-26T04:31:54.417Z,100.00
2018-09-26T04:34:23.693Z,100.00
2018-09-26T04:36:52.957Z,100.00
2018-09-26T04:39:21.357Z,100.00
2018-09-26T04:41:50.689Z,100.00
2018-09-26T04:44:19.906Z,100.00
2018-09-26T04:46:48.274Z,100.00
2018-09-26T04:49:16.679Z,100.00
2018-09-26T04:51:46.031Z,100.00
2018-09-26T04:54:14.375Z,100.00
2018-09-26T04:56:42.747Z,100.00
2018-09-26T04:59:11.088Z,100.00
2018-09-26T05:01:39.469Z,100.00
2018-09-26T05:04:07.808Z,100.00
2018-09-26T05:06:36.801Z,100.00
2018-09-26T05:09:08.388Z,100.00
2018-09-26T05:11:38.310Z,100.00
2018-09-26T05:14:08.437Z,100.00
2018-09-26T05:16:37.841Z,100.00
2018-09-26T05:19:07.120Z,100.00
2018-09-26T05:21:36.781Z,100.00
2018-09-26T05:24:05.762Z,100.00
2018-09-26T05:26:35.237Z,100.00
2018-09-26T05:29:04.340Z,100.00
2018-09-26T05:31:32.810Z,100.00
2018-09-26T05:34:02.053Z,100.00
2018-09-26T05:36:30.597Z,100.00
2018-09-26T05:38:58.945Z,100.00
2018-09-26T05:41:28.185Z,100.00
2018-09-26T05:43:57.682Z,100.00
2018-09-26T05:46:27.072Z,100.00
2018-09-26T05:48:57.389Z,100.00
2018-09-26T05:51:26.421Z,100.00
2018-09-26T05:53:56.376Z,100.00
2018-09-26T05:56:25.828Z,99.04
2018-09-26T05:58:54.170Z,99.97
2018-09-26T06:01:22.521Z,97.28
2018-09-26T06:03:50.929Z,97.05
2018-09-26T06:06:19.335Z,97.93
2018-09-26T06:08:48.720Z,97.16
2018-09-26T06:11:17.951Z,96.39
2018-09-26T06:13:46.289Z,96.27
2018-09-26T06:16:15.650Z,95.10
2018-09-26T06:18:44.045Z,93.16
2018-09-26T06:21:12.380Z,95.02
2018-09-26T06:23:41.626Z,92.44
2018-09-26T06:26:10.761Z,92.14
2018-09-26T06:28:39.962Z,92.74
2018-09-26T06:31:08.518Z,91.55
2018-09-26T06:33:36.858Z,93.17
2018-09-26T06:36:07.236Z,91.35
2018-09-26T06:38:36.474Z,88.40
2018-09-26T06:41:06.813Z,90.71
2018-09-26T06:43:36.323Z,90.96
2018-09-26T06:46:06.966Z,90.10
2018-09-26T06:48:35.777Z,89.87
2018-09-26T06:51:04.965Z,87.66
2018-09-26T06:53:33.284Z,89.74
2018-09-26T06:56:01.621Z,90.33
2018-09-26T06:58:29.960Z,87.72
2018-09-26T07:00:58.735Z,85.54
2018-09-26T07:03:27.652Z,85.15
2018-09-26T07:05:56.434Z,85.09
2018-09-26T07:08:25.758Z,84.00
2018-09-26T07:10:54.097Z,82.95
2018-09-26T07:13:22.424Z,81.65
2018-09-26T07:15:50.752Z,82.81
2018-09-26T07:18:19.102Z,81.59
2018-09-26T07:20:47.480Z,83.58
2018-09-26T07:23:15.807Z,83.70
2018-09-26T07:25:44.140Z,80.97
2018-09-26T07:28:12.473Z,80.80
2018-09-26T07:30:40.815Z,83.53
2018-09-26T07:33:09.990Z,81.88
2018-09-26T07:35:38.362Z,81.61
2018-09-26T07:38:07.765Z,82.27
2018-09-26T07:40:37.088Z,83.98
2018-09-26T07:43:06.460Z,83.73
2018-09-26T07:45:35.459Z,82.64
2018-09-26T07:48:03.873Z,80.71
2018-09-26T07:50:32.244Z,79.61
2018-09-26T07:53:00.571Z,79.58
2018-09-26T07:55:28.934Z,76.24
2018-09-26T07:57:59.022Z,76.36
2018-09-26T08:00:28.492Z,71.82
2018-09-26T08:02:57.737Z,74.95
2018-09-26T08:05:26.493Z,75.72
2018-09-26T08:07:56.557Z,73.71
2018-09-26T08:10:25.459Z,71.67
2018-09-26T08:12:53.789Z,69.85
2018-09-26T08:15:22.117Z,68.80
2018-09-26T08:17:50.447Z,66.45
2018-09-26T08:20:18.809Z,68.25
2018-09-26T08:22:48.046Z,68.18
2018-09-26T08:25:16.453Z,68.07
2018-09-26T08:27:44.901Z,65.85
2018-09-26T08:30:13.237Z,66.46
2018-09-26T08:32:41.575Z,67.32
2018-09-26T08:35:09.894Z,63.92
2018-09-26T08:37:38.225Z,62.62
2018-09-26T08:40:07.065Z,66.28
2018-09-26T08:42:35.893Z,61.16
2018-09-26T08:45:05.006Z,62.56
2018-09-26T08:47:33.413Z,64.53
2018-09-26T08:50:01.737Z,61.87
2018-09-26T08:52:30.073Z,61.67
2018-09-26T08:54:58.419Z,56.43
2018-09-26T08:57:28.233Z,61.67
2018-09-26T08:59:58.845Z,60.08
2018-09-26T09:02:27.669Z,60.22
2018-09-26T09:04:56.025Z,56.79
2018-09-26T09:07:24.348Z,55.63
2018-09-26T09:09:52.685Z,54.84
2018-09-26T09:12:21.090Z,54.26
2018-09-26T09:14:49.563Z,52.36
2018-09-26T09:17:17.781Z,51.01
2018-09-26T09:19:46.180Z,51.20
2018-09-26T09:22:14.538Z,53.92
2018-09-26T09:24:42.881Z,52.35
2018-09-26T09:27:11.293Z,51.57
2018-09-26T09:29:39.678Z,51.55
2018-09-26T09:32:08.067Z,52.33
2018-09-26T09:34:37.542Z,51.74
2018-09-26T09:37:06.724Z,50.62
2018-09-26T09:39:36.996Z,52.71
2018-09-26T09:42:06.352Z,51.05
2018-09-26T09:44:37.123Z,51.57
2018-09-26T09:47:07.709Z,49.00
2018-09-26T09:49:37.523Z,49.46
2018-09-26T09:52:07.817Z,48.50
2018-09-26T09:54:36.873Z,46.61
2018-09-26T09:57:06.271Z,48.65
2018-09-26T09:59:34.973Z,44.80
2018-09-26T10:02:05.454Z,46.92
2018-09-26T10:04:34.562Z,45.29
2018-09-26T10:07:02.897Z,44.24
2018-09-26T10:09:31.273Z,47.54
2018-09-26T10:12:00.641Z,48.35
2018-09-26T10:14:29.052Z,49.46
2018-09-26T10:16:58.253Z,47.06
2018-09-26T10:19:28.137Z,47.44
2018-09-26T10:21:58.379Z,45.81
2018-09-26T10:24:27.396Z,46.15
2018-09-26T10:26:57.392Z,47.88
2018-09-26T10:29:26.488Z,49.26
2018-09-26T10:31:56.561Z,49.00
2018-09-26T10:34:25.523Z,45.03
2018-09-26T10:36:53.821Z,47.19
2018-09-26T10:39:22.165Z,44.45
2018-09-26T10:41:51.384Z,44.35
2018-09-26T10:44:20.923Z,46.98
2018-09-26T10:46:50.264Z,46.95
2018-09-26T10:49:18.582Z,46.80
2018-09-26T10:51:47.831Z,46.33
2018-09-26T10:54:17.428Z,44.44
2018-09-26T10:56:46.624Z,44.99
2018-09-26T10:59:14.956Z,45.08
2018-09-26T11:01:43.323Z,43.73
2018-09-26T11:04:12.582Z,44.01
2018-09-26T11:06:40.877Z,49.70
2018-09-26T11:09:09.741Z,44.53
2018-09-26T11:11:39.113Z,43.38
2018-09-26T11:14:08.065Z,45.48
2018-09-26T11:16:37.466Z,45.87
2018-09-26T11:19:06.873Z,47.22
2018-09-26T11:21:38.427Z,45.81
2018-09-26T11:24:07.628Z,47.53
2018-09-26T11:26:38.363Z,45.37
2018-09-26T11:29:07.332Z,51.98
2018-09-26T11:31:37.569Z,48.26
2018-09-26T11:34:08.009Z,48.23
2018-09-26T11:36:37.434Z,44.01
2018-09-26T11:39:08.368Z,42.60
2018-09-26T11:41:37.459Z,47.18
2018-09-26T11:44:06.473Z,47.34
2018-09-26T11:46:34.991Z,43.33
2018-09-26T11:49:03.344Z,43.74
2018-09-26T11:51:32.516Z,47.60
2018-09-26T11:54:01.957Z,42.63
2018-09-26T11:56:31.714Z,48.71
2018-09-26T11:59:00.021Z,45.56
2018-09-26T12:01:29.336Z,47.32
2018-09-26T12:03:58.705Z,47.88
2018-09-26T12:06:28.904Z,45.25
2018-09-26T12:08:58.235Z,43.75
2018-09-26T12:11:27.229Z,43.38
2018-09-26T12:13:57.787Z,45.29
2018-09-26T12:16:26.568Z,47.54
2018-09-26T12:18:55.554Z,45.69
2018-09-26T12:21:30.445Z,45.33
2018-09-26T12:23:52.208Z,42.05
2018-09-26T12:26:20.512Z,43.32
2018-09-26T12:28:48.825Z,39.50
2018-09-26T12:31:17.128Z,40.76
2018-09-26T12:33:45.430Z,39.94
2018-09-26T12:36:14.647Z,41.11
2018-09-26T12:38:43.833Z,44.67
2018-09-26T12:41:12.139Z,45.55
2018-09-26T12:43:40.453Z,42.52
2018-09-26T12:46:09.805Z,42.58
2018-09-26T12:48:39.036Z,40.16
2018-09-26T12:51:08.281Z,43.23
2018-09-26T12:53:38.466Z,43.25
2018-09-26T12:56:07.580Z,40.38
2018-09-26T12:58:36.904Z,42.27
2018-09-26T13:01:05.984Z,40.59
2018-09-26T13:03:35.212Z,41.10
2018-09-26T13:06:05.387Z,41.40
2018-09-26T13:08:35.801Z,38.75
2018-09-26T13:11:04.698Z,40.54
2018-09-26T13:13:33.005Z,42.63
2018-09-26T13:16:01.326Z,40.64
2018-09-26T13:18:29.681Z,41.21
2018-09-26T13:20:59.000Z,40.14
2018-09-26T13:23:28.090Z,39.93
2018-09-26T13:25:58.089Z,43.08
2018-09-26T13:28:27.094Z,41.76
2018-09-26T13:30:56.882Z,40.24
2018-09-26T13:33:25.245Z,39.77
2018-09-26T13:35:54.729Z,40.82
2018-09-26T13:38:23.079Z,43.60
2018-09-26T13:40:51.441Z,42.15
2018-09-26T13:43:20.752Z,42.49
2018-09-26T13:45:49.264Z,42.90
2018-09-26T13:48:17.619Z,40.88
2018-09-26T13:50:46.824Z,42.34
2018-09-26T13:53:16.128Z,43.56
2018-09-26T13:55:45.474Z,41.33
2018-09-26T13:58:14.625Z,40.91
2018-09-26T14:00:43.941Z,43.58
2018-09-26T14:03:13.300Z,43.63
2018-09-26T14:05:41.609Z,45.25
2018-09-26T14:08:10.934Z,44.06
2018-09-26T14:10:40.253Z,43.64
2018-09-26T14:13:09.449Z,41.37
2018-09-26T14:15:37.765Z,43.11
2018-09-26T14:18:07.292Z,42.11
2018-09-26T14:20:36.792Z,43.81
2018-09-26T14:23:07.107Z,42.95
2018-09-26T14:25:36.025Z,45.77
2018-09-26T14:28:06.417Z,42.25
2018-09-26T14:30:34.970Z,43.06
2018-09-26T14:33:03.197Z,42.96
2018-09-26T14:35:31.624Z,41.88
2018-09-26T14:38:00.878Z,43.98
2018-09-26T14:40:30.212Z,41.83
2018-09-26T14:42:59.596Z,43.11
2018-09-26T14:45:29.375Z,44.73
2018-09-26T14:47:58.796Z,41.70
2018-09-26T14:50:27.885Z,41.66
2018-09-26T14:52:58.138Z,43.04
2018-09-26T14:55:27.465Z,44.75
2018-09-26T14:57:57.883Z,42.88
2018-09-26T15:00:27.882Z,43.71
2018-09-26T15:02:58.673Z,39.36
2018-09-26T15:05:28.484Z,41.15
2018-09-26T15:07:58.269Z,44.81
2018-09-26T15:10:27.791Z,43.05
2018-09-26T15:12:56.753Z,42.03
2018-09-26T15:15:25.684Z,43.63
2018-09-26T15:17:54.028Z,42.45
2018-09-26T15:20:22.428Z,41.71
2018-09-26T15:22:50.877Z,43.06
2018-09-26T15:25:21.212Z,40.82
2018-09-26T15:27:49.758Z,40.23
2018-09-26T15:30:18.079Z,40.68
2018-09-26T15:32:46.445Z,40.43
2018-09-26T15:35:14.826Z,44.10
2018-09-26T15:37:43.247Z,40.88
2018-09-26T15:40:11.627Z,43.27
2018-09-26T15:42:39.921Z,41.36
2018-09-26T15:45:08.476Z,43.95
2018-09-26T15:47:37.332Z,44.77
2018-09-26T15:50:06.896Z,45.24
2018-09-26T15:52:36.521Z,43.35
2018-09-26T15:55:06.305Z,43.25
2018-09-26T15:57:34.685Z,43.44
2018-09-26T16:00:03.045Z,45.40
2018-09-26T16:02:31.481Z,45.67
2018-09-26T16:04:59.808Z,46.23
2018-09-26T16:07:29.581Z,45.40
2018-09-26T16:09:58.761Z,43.70
2018-09-26T16:12:27.993Z,44.55
2018-09-26T16:14:56.781Z,46.16
2018-09-26T16:17:25.698Z,47.26
2018-09-26T16:19:54.013Z,46.98
2018-09-26T16:22:23.381Z,47.21
2018-09-26T16:24:52.521Z,48.29
2018-09-26T16:27:21.990Z,48.01
2018-09-26T16:29:51.305Z,47.03
2018-09-26T16:32:19.684Z,47.07
2018-09-26T16:34:48.002Z,49.29
2018-09-26T16:37:16.549Z,50.69
2018-09-26T16:39:44.850Z,51.39
2018-09-26T16:42:13.167Z,49.92
2018-09-26T16:44:41.473Z,50.73
2018-09-26T16:47:10.720Z,51.08
2018-09-26T16:49:39.026Z,49.03
2018-09-26T16:52:08.693Z,52.33
2018-09-26T16:54:38.016Z,52.28
2018-09-26T16:57:07.405Z,52.82
2018-09-26T16:59:36.394Z,49.87
2018-09-26T17:02:06.386Z,51.02
2018-09-26T17:04:36.544Z,49.33
2018-09-26T17:07:06.174Z,50.08
2018-09-26T17:09:36.075Z,47.88
2018-09-26T17:12:06.140Z,49.70
2018-09-26T17:14:35.072Z,51.95
2018-09-26T17:17:05.897Z,50.43
2018-09-26T17:19:35.949Z,51.18
2018-09-26T17:22:06.020Z,49.50
2018-09-26T17:24:36.485Z,52.69
2018-09-26T17:27:06.108Z,50.38
2018-09-26T17:29:36.108Z,53.56
2018-09-26T17:32:05.982Z,50.84
2018-09-26T17:34:35.905Z,53.72
2018-09-26T17:37:05.585Z,52.15
2018-09-26T17:39:34.830Z,53.41
2018-09-26T17:42:04.755Z,53.85
2018-09-26T17:44:33.097Z,56.07
2018-09-26T17:47:01.461Z,57.29
2018-09-26T17:49:29.790Z,55.10
2018-09-26T17:52:19.453Z,53.68
2018-09-26T17:54:48.050Z,54.96
2018-09-26T17:57:16.348Z,53.19
2018-09-26T17:59:45.593Z,54.91
2018-09-26T18:02:15.014Z,52.84
2018-09-26T18:04:46.832Z,56.26
2018-09-26T18:07:17.084Z,51.49
2018-09-26T18:09:45.406Z,53.27
2018-09-26T18:12:14.715Z,50.91
2018-09-26T18:14:43.007Z,50.45
2018-09-26T18:17:11.350Z,52.87
2018-09-26T18:19:40.517Z,52.19
2018-09-26T18:22:08.862Z,53.36
2018-09-26T18:24:38.024Z,51.42
2018-09-26T18:27:06.872Z,52.58
2018-09-26T18:29:37.375Z,49.09
2018-09-26T18:32:06.788Z,48.87
2018-09-26T18:34:36.958Z,50.05
2018-09-26T18:37:06.281Z,49.48
2018-09-26T18:39:36.086Z,49.04
2018-09-26T18:42:05.656Z,50.07
2018-09-26T18:44:35.372Z,51.41
2018-09-26T18:47:03.689Z,48.98
2018-09-26T18:49:31.992Z,49.91
2018-09-26T18:52:00.351Z,48.86
2018-09-26T18:54:28.652Z,50.47
2018-09-26T18:56:57.768Z,49.69
2018-09-26T18:59:27.439Z,48.90
2018-09-26T19:01:57.670Z,49.50
2018-09-26T19:04:26.044Z,48.77
2018-09-26T19:06:54.315Z,50.02
2018-09-26T19:09:22.668Z,48.54
2018-09-26T19:11:51.997Z,49.31
2018-09-26T19:14:20.288Z,50.32
2018-09-26T19:16:49.485Z,51.95
2018-09-26T19:19:17.787Z,49.17
2018-09-26T19:21:46.117Z,49.88
2018-09-26T19:24:15.312Z,51.35
2018-09-26T19:26:43.608Z,51.05
2018-09-26T19:29:12.257Z,50.65
2018-09-26T19:31:41.606Z,50.21
2018-09-26T19:34:10.807Z,51.00
2018-09-26T19:36:40.003Z,50.00
2018-09-26T19:39:10.235Z,49.70
2018-09-26T19:41:39.588Z,51.03
2018-09-26T19:44:07.973Z,49.76
2018-09-26T19:46:37.241Z,49.48
2018-09-26T19:49:06.553Z,51.60
2018-09-26T19:51:36.975Z,51.49
2018-09-26T19:54:07.136Z,52.98
2018-09-26T19:56:36.629Z,50.42
2018-09-26T19:59:05.594Z,51.47
2018-09-26T20:01:34.956Z,51.25
2018-09-26T20:04:04.157Z,51.95
2018-09-26T20:06:34.615Z,51.08
2018-09-26T20:09:05.509Z,51.82
2018-09-26T20:11:34.393Z,51.45
2018-09-26T20:14:02.762Z,50.93
2018-09-26T20:16:31.889Z,51.58
2018-09-26T20:19:01.194Z,51.45
2018-09-26T20:21:30.609Z,51.65
2018-09-26T20:23:59.126Z,54.81
2018-09-26T20:26:29.430Z,52.34
2018-09-26T20:28:59.065Z,50.72
2018-09-26T20:31:28.472Z,53.13
2018-09-26T20:33:58.536Z,51.63
2018-09-26T20:36:27.845Z,51.83
2018-09-26T20:38:57.145Z,52.15
2018-09-26T20:41:25.979Z,51.37
2018-09-26T20:43:54.385Z,51.17
2018-09-26T20:46:22.777Z,52.99
2018-09-26T20:48:52.440Z,50.94
2018-09-26T20:51:21.748Z,52.61
2018-09-26T20:53:50.045Z,52.57
2018-09-26T20:56:18.401Z,53.31
2018-09-26T20:58:46.833Z,52.20
2018-09-26T21:01:15.197Z,52.53
2018-09-26T21:03:44.421Z,51.38
2018-09-26T21:06:12.800Z,51.69
2018-09-26T21:08:41.205Z,52.09
2018-09-26T21:11:10.527Z,50.84
2018-09-26T21:13:38.941Z,54.13
2018-09-26T21:16:08.204Z,52.67
2018-09-26T21:18:37.429Z,52.22
2018-09-26T21:21:06.771Z,50.90
2018-09-26T21:23:35.853Z,50.03
2018-09-26T21:26:04.852Z,50.93
2018-09-26T21:28:33.148Z,53.45
2018-09-26T21:31:01.677Z,50.90
2018-09-26T21:33:30.066Z,50.14
2018-09-26T21:35:59.076Z,52.40
2018-09-26T21:38:28.141Z,52.20
2018-09-26T21:40:56.972Z,50.25
2018-09-26T21:43:26.049Z,51.91
2018-09-26T21:45:56.101Z,52.61
2018-09-26T21:48:24.436Z,50.93
2018-09-26T21:50:52.745Z,50.78
2018-09-26T21:53:22.040Z,51.83
2018-09-26T21:55:51.432Z,51.35
2018-09-26T21:58:19.984Z,51.75
2018-09-26T22:00:53.816Z,52.63
2018-09-26T22:03:23.090Z,52.94
2018-09-26T22:05:51.486Z,52.20
2018-09-26T22:08:20.080Z,52.06
2018-09-26T22:10:49.353Z,54.86
2018-09-26T22:13:17.755Z,54.48
2018-09-26T22:15:47.198Z,54.51
2018-09-26T22:18:15.622Z,55.22
2018-09-26T22:20:45.063Z,54.93
2018-09-26T22:23:14.500Z,55.20
2018-09-26T22:25:42.900Z,53.60
2018-09-26T22:28:12.175Z,56.25
2018-09-26T22:30:40.630Z,54.31
2018-09-26T22:33:09.882Z,54.01
2018-09-26T22:35:38.283Z,54.98
2018-09-26T22:38:07.726Z,54.28
2018-09-26T22:40:37.147Z,55.14
2018-09-26T22:43:06.204Z,52.46
2018-09-26T22:45:36.351Z,54.39
2018-09-26T22:48:04.836Z,55.37
2018-09-26T22:50:33.229Z,54.37
2018-09-26T22:53:01.613Z,52.17
2018-09-26T22:55:30.023Z,53.95
2018-09-26T22:57:59.487Z,53.67
2018-09-26T23:00:29.079Z,51.65
2018-09-26T23:02:58.396Z,52.09
2018-09-26T23:05:27.178Z,51.31
2018-09-26T23:07:56.066Z,53.42
2018-09-26T23:10:24.457Z,54.31
2018-09-26T23:12:52.888Z,52.77
2018-09-26T23:15:21.273Z,51.67
2018-09-26T23:17:49.658Z,54.74
2018-09-26T23:20:18.047Z,51.93
2018-09-26T23:22:46.437Z,54.79
2018-09-26T23:25:14.924Z,53.32
2018-09-26T23:27:43.645Z,54.23
2018-09-26T23:30:13.054Z,54.94
2018-09-26T23:32:42.338Z,53.42
2018-09-26T23:35:11.733Z,53.15
2018-09-26T23:37:40.961Z,55.46
2018-09-26T23:40:09.359Z,54.76
2018-09-26T23:42:37.746Z,56.28
2018-09-26T23:45:07.230Z,55.41
2018-09-26T23:47:36.491Z,55.94
2018-09-26T23:50:06.617Z,55.48
2018-09-26T23:52:36.262Z,54.19
2018-09-26T23:55:05.513Z,56.31
2018-09-26T23:57:34.837Z,55.74
